createdAt,value
2019-05-19T00:00:17.424Z,60.3
2019-05-19T00:05:16.933Z,60.5
2019-05-19T00:10:16.815Z,60.2
2019-05-19T00:15:16.583Z,61
2019-05-19T00:20:16.416Z,60.7
2019-05-19T00:25:16.061Z,61.6
2019-05-19T00:30:15.632Z,64.1
2019-05-19T00:35:15.002Z,66.4
2019-05-19T00:40:14.124Z,66.7
2019-05-19T00:45:13.778Z,68.2
2019-05-19T00:50:13.371Z,68
2019-05-19T00:55:13.055Z,67.8
2019-05-19T01:00:12.640Z,68.9
2019-05-19T01:05:11.835Z,69.9
2019-05-19T01:10:11.111Z,69
2019-05-19T01:15:10.490Z,71
2019-05-19T01:20:09.983Z,75.3
2019-05-19T01:25:09.383Z,74
2019-05-19T01:30:09.021Z,77.2
2019-05-19T01:35:08.510Z,77.7
2019-05-19T01:40:08.289Z,78.1
2019-05-19T01:45:07.916Z,78.5
2019-05-19T01:50:19.003Z,78.1
2019-05-19T01:55:16.671Z,80.1
2019-05-19T02:00:16.004Z,81
2019-05-19T02:05:15.569Z,80.8
2019-05-19T02:10:15.319Z,81.9
2019-05-19T02:15:15.049Z,81.5
2019-05-19T02:20:14.595Z,82.6
2019-05-19T02:25:14.316Z,82.2
2019-05-19T02:30:13.837Z,82.2
2019-05-19T02:35:13.400Z,83.3
2019-05-19T02:40:12.804Z,83.3
2019-05-19T02:45:12.437Z,83
2019-05-19T02:50:12.093Z,83.9
2019-05-19T02:55:11.549Z,84.4
2019-05-19T03:00:11.130Z,83.8
2019-05-19T03:05:10.882Z,84
2019-05-19T03:10:10.475Z,83.2
2019-05-19T03:15:10.396Z,82
2019-05-19T03:20:10.308Z,82.2
2019-05-19T03:25:10.653Z,76.4
2019-05-19T03:30:12.102Z,70.7
2019-05-19T03:35:12.536Z,68.5
2019-05-19T03:40:12.257Z,70.4
2019-05-19T03:45:12.296Z,69
2019-05-19T03:50:11.763Z,72.2
2019-05-19T03:55:11.721Z,64.8
2019-05-19T04:00:11.188Z,70.3
2019-05-19T04:05:10.616Z,71.4
2019-05-19T04:10:11.520Z,67.8
2019-05-19T04:15:10.801Z,69.4
2019-05-19T04:20:12.016Z,66.5
2019-05-19T04:25:12.967Z,57.2
2019-05-19T04:30:13.621Z,54.6
2019-05-19T04:35:14.213Z,53.3
2019-05-19T04:40:14.154Z,55.8
2019-05-19T04:45:14.487Z,49.7
2019-05-19T04:50:13.656Z,52.9
2019-05-19T04:55:12.834Z,55.1
2019-05-19T05:00:13.189Z,52.2
2019-05-19T05:05:12.915Z,53.1
2019-05-19T05:10:12.453Z,54.2
2019-05-19T05:15:11.970Z,53
2019-05-19T05:20:11.854Z,51.2
2019-05-19T05:25:11.735Z,54
2019-05-19T05:30:11.103Z,55.4
2019-05-19T05:35:11.824Z,54.1
2019-05-19T05:40:11.566Z,61.9
2019-05-19T05:45:11.172Z,62
2019-05-19T05:50:10.717Z,58.2
2019-05-19T05:55:12.539Z,56.7
2019-05-19T06:00:11.683Z,57.3
2019-05-19T06:05:10.663Z,61.6
2019-05-19T06:10:11.671Z,56.8
2019-05-19T06:15:11.409Z,59.2
2019-05-19T06:20:12.409Z,51.6
2019-05-19T06:25:12.449Z,52.1
2019-05-19T06:30:12.438Z,52.8
2019-05-19T06:35:13.285Z,52.4
2019-05-19T06:40:13.390Z,51.6
2019-05-19T06:45:13.108Z,49.7
2019-05-19T06:50:13.129Z,50.4
2019-05-19T06:55:13.543Z,50.9
2019-05-19T07:00:13.526Z,49
2019-05-19T07:05:14.081Z,45.8
2019-05-19T07:10:14.276Z,48
2019-05-19T07:15:13.758Z,48.1
2019-05-19T07:20:13.517Z,50.6
2019-05-19T07:25:13.614Z,46
2019-05-19T07:30:13.237Z,48.5
2019-05-19T07:35:13.093Z,47.7
2019-05-19T07:40:12.337Z,44.1
2019-05-19T07:45:12.461Z,45
2019-05-19T07:50:11.971Z,49.4
2019-05-19T07:55:11.460Z,48.3
2019-05-19T08:00:11.217Z,48.8
2019-05-19T08:05:10.504Z,48.7
2019-05-19T08:10:10.100Z,49.3
2019-05-19T08:15:09.900Z,50
2019-05-19T08:20:09.254Z,51
2019-05-19T08:25:09.079Z,52.4
2019-05-19T08:30:09.144Z,49.2
2019-05-19T08:35:09.654Z,48.1
2019-05-19T08:40:10.053Z,49.6
2019-05-19T08:45:09.997Z,49.6
2019-05-19T08:50:09.175Z,46.6
2019-05-19T08:55:08.375Z,49.8
2019-05-19T09:00:08.154Z,51.7
2019-05-19T09:05:08.437Z,48.2
2019-05-19T09:10:08.274Z,51.9
2019-05-19T09:15:08.241Z,49.5
2019-05-19T09:20:08.818Z,47.3
2019-05-19T09:25:08.540Z,48.7
2019-05-19T09:30:08.802Z,47.2
2019-05-19T09:35:08.445Z,43.3
2019-05-19T09:40:07.957Z,47.3
2019-05-19T09:45:08.739Z,41.2
2019-05-19T09:50:08.751Z,43.5
2019-05-19T09:55:08.952Z,41.4
2019-05-19T10:00:08.002Z,40.1
2019-05-19T10:05:09.442Z,42.2
2019-05-19T10:10:08.837Z,40.1
2019-05-19T10:15:09.290Z,41.8
2019-05-19T10:20:09.346Z,39.6
2019-05-19T10:25:23.017Z,41.3
2019-05-19T10:30:19.546Z,39.8
2019-05-19T10:35:19.861Z,40.2
2019-05-19T10:40:23.610Z,40.2
2019-05-19T10:45:24.122Z,37.2
2019-05-19T10:50:22.914Z,38.3
2019-05-19T10:55:37.072Z,34.4
2019-05-19T11:00:35.096Z,38.8
2019-05-19T11:05:35.397Z,34.5
2019-05-19T11:10:35.071Z,34.1
2019-05-19T11:20:20.373Z,36.9
2019-05-19T11:25:34.557Z,37
2019-05-19T11:30:32.463Z,35.5
2019-05-19T11:35:31.498Z,39.6
2019-05-19T11:40:30.864Z,40.2
2019-05-19T11:45:30.305Z,37.4
2019-05-19T11:50:29.846Z,40
2019-05-19T11:55:29.737Z,37.4
2019-05-19T12:00:29.611Z,42.3
2019-05-19T12:05:29.387Z,42.7
2019-05-19T12:10:29.797Z,42.7
2019-05-19T12:15:29.445Z,45
2019-05-19T12:20:28.867Z,42.7
2019-05-19T12:25:28.513Z,44.7
2019-05-19T12:30:28.309Z,43.1
2019-05-19T12:35:27.983Z,45.2
2019-05-19T12:40:28.080Z,45.8
2019-05-19T12:45:28.505Z,45.5
2019-05-19T12:50:28.296Z,46.1
2019-05-19T12:55:28.263Z,47.9
2019-05-19T13:00:29.212Z,48.4
2019-05-19T13:05:28.555Z,46.1
2019-05-19T13:10:28.729Z,46.6
2019-05-19T13:15:28.526Z,46.1
2019-05-19T13:20:28.085Z,49
2019-05-19T13:25:27.875Z,46
2019-05-19T13:30:28.017Z,47.6
2019-05-19T13:35:28.147Z,45.6
2019-05-19T13:40:27.919Z,44.9
2019-05-19T13:45:28.057Z,46.3
2019-05-19T13:50:27.615Z,48.4
2019-05-19T13:55:26.598Z,47.9
2019-05-19T14:00:25.251Z,50.5
2019-05-19T14:05:25.000Z,47
2019-05-19T14:10:24.420Z,47.7
2019-05-19T14:15:24.067Z,47.5
2019-05-19T14:20:23.728Z,49.4
2019-05-19T14:25:23.230Z,47.9
2019-05-19T14:30:23.041Z,50.7
2019-05-19T14:35:22.850Z,49.9
2019-05-19T14:40:22.703Z,49.8
2019-05-19T14:45:22.512Z,50.3
2019-05-19T14:50:22.085Z,52.5
2019-05-19T14:55:21.221Z,53.2
2019-05-19T15:00:20.477Z,50.4
2019-05-19T15:05:20.249Z,52.9
2019-05-19T15:10:19.960Z,49.9
2019-05-19T15:15:19.914Z,49.3
2019-05-19T15:20:19.568Z,50.8
2019-05-19T15:25:19.257Z,48.9
2019-05-19T15:30:18.497Z,50.8
2019-05-19T15:35:18.105Z,49.9
2019-05-19T15:40:17.624Z,49.5
2019-05-19T15:45:17.065Z,53.1
2019-05-19T15:50:16.641Z,51.7
2019-05-19T15:55:16.121Z,51.2
2019-05-19T16:00:15.427Z,53.1
2019-05-19T16:05:15.531Z,53.4
2019-05-19T16:10:15.523Z,55.6
2019-05-19T16:15:15.013Z,53
2019-05-19T16:20:14.409Z,53.5
2019-05-19T16:25:13.914Z,54.7
2019-05-19T16:30:13.686Z,53.8
2019-05-19T16:35:13.485Z,52.9
2019-05-19T16:40:13.560Z,52.8
2019-05-19T16:45:13.280Z,55.2
2019-05-19T16:50:12.419Z,56.3
2019-05-19T16:55:11.980Z,57.1
2019-05-19T17:00:11.422Z,55
2019-05-19T17:05:10.990Z,55.7
2019-05-19T17:10:10.593Z,52.1
2019-05-19T17:15:10.269Z,51.8
2019-05-19T17:20:09.656Z,52.6
2019-05-19T17:25:09.572Z,52.6
2019-05-19T17:30:09.214Z,51.5
2019-05-19T17:35:08.618Z,51.2
2019-05-19T17:40:08.263Z,51.9
2019-05-19T17:45:07.851Z,53
2019-05-19T17:50:07.397Z,52.3
2019-05-19T17:55:07.637Z,52.2
2019-05-19T18:00:10.490Z,54
2019-05-19T18:05:09.507Z,54.1
2019-05-19T18:10:09.147Z,54.8
2019-05-19T18:15:08.979Z,55.9
2019-05-19T18:20:24.345Z,56.3
2019-05-19T18:25:21.798Z,59.3
2019-05-19T18:30:21.106Z,57.1
2019-05-19T18:35:20.531Z,56.8
2019-05-19T18:40:20.518Z,57
2019-05-19T18:45:20.044Z,57
2019-05-19T18:50:19.394Z,56.6
2019-05-19T18:55:19.187Z,57.2
2019-05-19T19:00:18.748Z,58.7
2019-05-19T19:05:18.140Z,57.7
2019-05-19T19:10:18.091Z,57.2
2019-05-19T19:15:17.817Z,58.3
2019-05-19T19:20:17.453Z,57.3
2019-05-19T19:25:17.032Z,57.5
2019-05-19T19:30:17.375Z,58.8
2019-05-19T19:35:16.775Z,59.3
2019-05-19T19:40:16.680Z,63
2019-05-19T19:45:16.581Z,55.8
2019-05-19T19:50:16.991Z,57.2
2019-05-19T19:55:16.483Z,58.2
2019-05-19T20:00:19.097Z,58.2
2019-05-19T20:05:18.396Z,58.1
2019-05-19T20:10:18.064Z,59.4
2019-05-19T20:15:17.701Z,58.9
2019-05-19T20:20:17.328Z,59.2
2019-05-19T20:25:16.940Z,58.8
2019-05-19T20:30:16.533Z,58.7
2019-05-19T20:35:16.429Z,58.6
2019-05-19T20:40:16.044Z,58.4
2019-05-19T20:45:16.729Z,56.7
2019-05-19T20:50:16.129Z,55.4
2019-05-19T20:55:15.881Z,56
2019-05-19T21:00:15.482Z,57.7
2019-05-19T21:05:15.098Z,56.7
2019-05-19T21:10:14.893Z,62.5
2019-05-19T21:15:14.123Z,56.5
2019-05-19T21:20:14.297Z,58.1
2019-05-19T21:25:14.025Z,62.9
2019-05-19T21:30:13.093Z,61.1
2019-05-19T21:35:12.640Z,64.6
2019-05-19T21:40:12.417Z,60.8
2019-05-19T21:45:11.876Z,66.6
2019-05-19T21:50:11.167Z,67
2019-05-19T21:55:10.747Z,66.6
2019-05-19T22:00:10.278Z,66.4
2019-05-19T22:05:09.899Z,68.5
2019-05-19T22:10:09.541Z,66.7
2019-05-19T22:15:09.069Z,65.8
2019-05-19T22:20:08.595Z,65.2
2019-05-19T22:25:08.397Z,62.4
2019-05-19T22:30:08.188Z,66.4
2019-05-19T22:35:07.536Z,67.5
2019-05-19T22:40:07.181Z,62.1
2019-05-19T22:45:06.964Z,64.3
2019-05-19T22:50:06.553Z,68.1
2019-05-19T22:55:06.379Z,69.4
2019-05-19T23:00:06.065Z,66.3
2019-05-19T23:05:05.781Z,64.6
2019-05-19T23:10:05.773Z,65.3
2019-05-19T23:15:05.662Z,65.5
2019-05-19T23:20:03.031Z,61.6
2019-05-19T23:25:02.819Z,66.5
2019-05-19T23:30:02.440Z,62.1
2019-05-19T23:35:02.222Z,63.2
2019-05-19T23:40:01.884Z,65.3
2019-05-19T23:45:01.659Z,64.1
2019-05-19T23:50:01.039Z,64
2019-05-19T23:55:00.749Z,63.1
